sensor_id;sensor_type;location;lat;lon;timestamp;pressure;altitude;pressure_sealevel;temperature;humidity
15568;BME280;7885;42.596;23.044;2024-03-06T00:01:53;92648.41;;;6.45;98.73
15568;BME280;7885;42.596;23.044;2024-03-06T00:04:21;92654.69;;;6.56;98.72
15568;BME280;7885;42.596;23.044;2024-03-06T00:06:47;92648.19;;;6.65;98.66
15568;BME280;7885;42.596;23.044;2024-03-06T00:09:17;92646.28;;;6.69;98.62
15568;BME280;7885;42.596;23.044;2024-03-06T00:11:44;92641.22;;;6.67;98.12
15568;BME280;7885;42.596;23.044;2024-03-06T00:14:11;92635.03;;;6.63;98.07
15568;BME280;7885;42.596;23.044;2024-03-06T00:16:38;92651.00;;;6.82;98.05
15568;BME280;7885;42.596;23.044;2024-03-06T00:19:05;92651.44;;;6.91;98.42
15568;BME280;7885;42.596;23.044;2024-03-06T00:21:33;92630.94;;;6.90;98.00
15568;BME280;7885;42.596;23.044;2024-03-06T00:24:01;92635.63;;;7.00;97.10
15568;BME280;7885;42.596;23.044;2024-03-06T00:26:29;92638.00;;;7.09;95.88
15568;BME280;7885;42.596;23.044;2024-03-06T00:28:55;92642.66;;;7.12;94.95
15568;BME280;7885;42.596;23.044;2024-03-06T00:31:22;92654.28;;;7.16;95.71
15568;BME280;7885;42.596;23.044;2024-03-06T00:33:49;92630.19;;;6.97;95.78
15568;BME280;7885;42.596;23.044;2024-03-06T00:36:16;92646.91;;;7.13;96.60
15568;BME280;7885;42.596;23.044;2024-03-06T00:38:44;92649.19;;;7.07;95.94
15568;BME280;7885;42.596;23.044;2024-03-06T00:41:10;92649.56;;;6.99;95.44
15568;BME280;7885;42.596;23.044;2024-03-06T00:43:37;92642.59;;;6.98;95.95
15568;BME280;7885;42.596;23.044;2024-03-06T00:46:05;92652.56;;;6.87;94.86
15568;BME280;7885;42.596;23.044;2024-03-06T00:48:31;92647.13;;;6.83;96.71
15568;BME280;7885;42.596;23.044;2024-03-06T00:50:58;92629.22;;;6.61;96.19
15568;BME280;7885;42.596;23.044;2024-03-06T00:53:25;92659.44;;;6.77;96.09
15568;BME280;7885;42.596;23.044;2024-03-06T00:55:53;92658.63;;;6.70;94.90
15568;BME280;7885;42.596;23.044;2024-03-06T00:58:20;92651.63;;;6.62;94.29
15568;BME280;7885;42.596;23.044;2024-03-06T01:00:47;92668.59;;;6.58;94.34
15568;BME280;7885;42.596;23.044;2024-03-06T01:03:13;92663.19;;;6.55;95.35
15568;BME280;7885;42.596;23.044;2024-03-06T01:05:40;92657.63;;;6.37;93.39
15568;BME280;7885;42.596;23.044;2024-03-06T01:08:07;92663.78;;;6.34;91.09
15568;BME280;7885;42.596;23.044;2024-03-06T01:10:34;92658.66;;;6.22;92.27
15568;BME280;7885;42.596;23.044;2024-03-06T01:13:02;92641.06;;;5.98;92.12
15568;BME280;7885;42.596;23.044;2024-03-06T01:15:29;92653.41;;;5.96;92.02
15568;BME280;7885;42.596;23.044;2024-03-06T01:17:56;92651.00;;;5.87;92.61
15568;BME280;7885;42.596;23.044;2024-03-06T01:20:23;92659.47;;;5.86;93.16
15568;BME280;7885;42.596;23.044;2024-03-06T01:22:50;92651.19;;;5.72;93.82
15568;BME280;7885;42.596;23.044;2024-03-06T01:25:17;92657.38;;;5.72;93.31
15568;BME280;7885;42.596;23.044;2024-03-06T01:27:44;92659.25;;;5.68;93.76
15568;BME280;7885;42.596;23.044;2024-03-06T01:30:12;92652.56;;;5.55;93.90
15568;BME280;7885;42.596;23.044;2024-03-06T01:32:39;92649.75;;;5.44;94.69
15568;BME280;7885;42.596;23.044;2024-03-06T01:35:06;92653.59;;;5.43;95.74
15568;BME280;7885;42.596;23.044;2024-03-06T01:37:34;92655.88;;;5.41;96.55
15568;BME280;7885;42.596;23.044;2024-03-06T01:40:00;92655.06;;;5.37;97.89
15568;BME280;7885;42.596;23.044;2024-03-06T01:42:29;92652.69;;;5.32;98.97
15568;BME280;7885;42.596;23.044;2024-03-06T01:44:56;92656.59;;;5.38;99.82
15568;BME280;7885;42.596;23.044;2024-03-06T01:47:24;92657.50;;;5.49;100.00
15568;BME280;7885;42.596;23.044;2024-03-06T01:49:51;92663.69;;;5.50;100.00
15568;BME280;7885;42.596;23.044;2024-03-06T01:52:19;92648.19;;;5.43;99.90
15568;BME280;7885;42.596;23.044;2024-03-06T01:54:48;92656.75;;;5.52;98.42
15568;BME280;7885;42.596;23.044;2024-03-06T01:57:16;92635.34;;;5.33;96.11
15568;BME280;7885;42.596;23.044;2024-03-06T01:59:43;92660.56;;;5.44;94.93
15568;BME280;7885;42.596;23.044;2024-03-06T02:02:10;92652.63;;;5.29;95.33
15568;BME280;7885;42.596;23.044;2024-03-06T02:04:39;92665.81;;;5.34;95.75
15568;BME280;7885;42.596;23.044;2024-03-06T02:07:08;92669.59;;;5.29;95.82
15568;BME280;7885;42.596;23.044;2024-03-06T02:09:36;92683.09;;;5.29;95.98
15568;BME280;7885;42.596;23.044;2024-03-06T02:12:03;92681.53;;;5.28;96.31
15568;BME280;7885;42.596;23.044;2024-03-06T02:14:30;92672.94;;;5.19;96.27
15568;BME280;7885;42.596;23.044;2024-03-06T02:16:56;92681.13;;;5.26;95.84
15568;BME280;7885;42.596;23.044;2024-03-06T02:19:23;92687.28;;;5.23;94.76
15568;BME280;7885;42.596;23.044;2024-03-06T02:21:53;92682.19;;;5.18;95.27
15568;BME280;7885;42.596;23.044;2024-03-06T02:24:20;92680.84;;;5.05;94.90
15568;BME280;7885;42.596;23.044;2024-03-06T02:26:47;92680.81;;;5.01;96.24
15568;BME280;7885;42.596;23.044;2024-03-06T02:29:14;92658.16;;;4.80;97.26
15568;BME280;7885;42.596;23.044;2024-03-06T02:31:40;92683.00;;;4.92;97.70
15568;BME280;7885;42.596;23.044;2024-03-06T02:34:07;92685.91;;;4.80;96.12
15568;BME280;7885;42.596;23.044;2024-03-06T02:36:34;92680.03;;;4.48;97.67
15568;BME280;7885;42.596;23.044;2024-03-06T02:39:03;92684.72;;;4.51;100.00
15568;BME280;7885;42.596;23.044;2024-03-06T02:41:34;92675.03;;;4.24;98.55
15568;BME280;7885;42.596;23.044;2024-03-06T02:44:01;92674.50;;;4.15;100.00
15568;BME280;7885;42.596;23.044;2024-03-06T02:46:28;92685.00;;;4.20;100.00
15568;BME280;7885;42.596;23.044;2024-03-06T02:48:54;92690.38;;;4.20;100.00
15568;BME280;7885;42.596;23.044;2024-03-06T02:51:21;92687.25;;;4.18;100.00
15568;BME280;7885;42.596;23.044;2024-03-06T02:53:48;92686.59;;;4.25;99.25
15568;BME280;7885;42.596;23.044;2024-03-06T02:56:20;92677.31;;;4.22;96.69
15568;BME280;7885;42.596;23.044;2024-03-06T02:58:46;92689.78;;;4.30;94.27
15568;BME280;7885;42.596;23.044;2024-03-06T03:01:14;92699.72;;;4.26;95.53
15568;BME280;7885;42.596;23.044;2024-03-06T03:03:41;92692.22;;;4.16;97.79
15568;BME280;7885;42.596;23.044;2024-03-06T03:06:08;92693.81;;;4.17;99.57
15568;BME280;7885;42.596;23.044;2024-03-06T03:08:35;92701.88;;;4.17;100.00
15568;BME280;7885;42.596;23.044;2024-03-06T03:11:03;92690.88;;;4.03;100.00
15568;BME280;7885;42.596;23.044;2024-03-06T03:13:31;92699.53;;;3.93;100.00
15568;BME280;7885;42.596;23.044;2024-03-06T03:15:58;92700.34;;;3.97;100.00
15568;BME280;7885;42.596;23.044;2024-03-06T03:18:24;92704.78;;;4.08;100.00
15568;BME280;7885;42.596;23.044;2024-03-06T03:20:52;92710.25;;;4.12;100.00
15568;BME280;7885;42.596;23.044;2024-03-06T03:23:18;92712.22;;;4.15;100.00
15568;BME280;7885;42.596;23.044;2024-03-06T03:25:47;92713.47;;;4.21;100.00
15568;BME280;7885;42.596;23.044;2024-03-06T03:28:14;92711.81;;;4.13;100.00
15568;BME280;7885;42.596;23.044;2024-03-06T03:30:44;92707.56;;;4.12;97.90
15568;BME280;7885;42.596;23.044;2024-03-06T03:33:11;92708.41;;;4.16;100.00
15568;BME280;7885;42.596;23.044;2024-03-06T03:35:37;92691.81;;;4.14;100.00
15568;BME280;7885;42.596;23.044;2024-03-06T03:38:04;92697.38;;;4.25;100.00
15568;BME280;7885;42.596;23.044;2024-03-06T03:40:31;92710.09;;;4.28;98.63
15568;BME280;7885;42.596;23.044;2024-03-06T03:46:21;92715.75;;;4.19;92.78
15568;BME280;7885;42.596;23.044;2024-03-06T03:48:48;92719.88;;;4.13;93.01
15568;BME280;7885;42.596;23.044;2024-03-06T03:51:15;92713.22;;;4.07;94.20
15568;BME280;7885;42.596;23.044;2024-03-06T03:53:42;92710.13;;;4.05;95.00
15568;BME280;7885;42.596;23.044;2024-03-06T03:56:09;92714.72;;;4.04;96.13
15568;BME280;7885;42.596;23.044;2024-03-06T03:58:36;92725.44;;;4.01;97.42
15568;BME280;7885;42.596;23.044;2024-03-06T04:01:03;92722.44;;;4.06;99.05
15568;BME280;7885;42.596;23.044;2024-03-06T04:03:31;92736.25;;;4.04;94.60
15568;BME280;7885;42.596;23.044;2024-03-06T04:05:58;92742.72;;;4.00;93.71
15568;BME280;7885;42.596;23.044;2024-03-06T04:08:25;92727.94;;;3.90;97.29
15568;BME280;7885;42.596;23.044;2024-03-06T04:10:52;92742.88;;;3.88;98.61
15568;BME280;7885;42.596;23.044;2024-03-06T04:13:19;92741.91;;;3.77;99.72
15568;BME280;7885;42.596;23.044;2024-03-06T04:15:46;92733.75;;;3.73;100.00
15568;BME280;7885;42.596;23.044;2024-03-06T04:18:13;92745.63;;;3.69;100.00
15568;BME280;7885;42.596;23.044;2024-03-06T04:20:41;92745.09;;;3.63;100.00
15568;BME280;7885;42.596;23.044;2024-03-06T04:23:08;92758.06;;;3.77;99.77
15568;BME280;7885;42.596;23.044;2024-03-06T04:25:35;92763.50;;;3.80;97.51
15568;BME280;7885;42.596;23.044;2024-03-06T04:28:02;92759.03;;;3.88;96.80
15568;BME280;7885;42.596;23.044;2024-03-06T04:30:29;92766.19;;;3.80;95.58
15568;BME280;7885;42.596;23.044;2024-03-06T04:32:56;92757.63;;;3.75;94.61
15568;BME280;7885;42.596;23.044;2024-03-06T04:35:23;92747.88;;;3.67;94.66
15568;BME280;7885;42.596;23.044;2024-03-06T04:37:51;92763.03;;;3.75;96.62
15568;BME280;7885;42.596;23.044;2024-03-06T04:40:18;92753.44;;;3.77;97.95
15568;BME280;7885;42.596;23.044;2024-03-06T04:42:47;92763.63;;;3.87;98.66
15568;BME280;7885;42.596;23.044;2024-03-06T04:45:15;92770.78;;;3.99;98.15
15568;BME280;7885;42.596;23.044;2024-03-06T04:47:42;92760.72;;;3.96;98.43
15568;BME280;7885;42.596;23.044;2024-03-06T04:50:10;92768.63;;;4.08;98.46
15568;BME280;7885;42.596;23.044;2024-03-06T04:52:37;92752.28;;;3.97;98.58
15568;BME280;7885;42.596;23.044;2024-03-06T04:55:07;92762.97;;;4.13;98.40
15568;BME280;7885;42.596;23.044;2024-03-06T04:57:36;92771.91;;;4.17;96.62
15568;BME280;7885;42.596;23.044;2024-03-06T05:00:04;92763.44;;;4.19;95.38
15568;BME280;7885;42.596;23.044;2024-03-06T05:02:31;92764.03;;;4.08;95.06
15568;BME280;7885;42.596;23.044;2024-03-06T05:05:00;92765.59;;;4.10;95.06
15568;BME280;7885;42.596;23.044;2024-03-06T05:07:27;92767.97;;;4.15;94.84
15568;BME280;7885;42.596;23.044;2024-03-06T05:09:54;92771.91;;;4.17;94.33
15568;BME280;7885;42.596;23.044;2024-03-06T05:12:23;92772.72;;;4.21;94.37
15568;BME280;7885;42.596;23.044;2024-03-06T05:14:50;92765.06;;;4.23;95.10
15568;BME280;7885;42.596;23.044;2024-03-06T05:17:17;92757.00;;;4.23;95.00
15568;BME280;7885;42.596;23.044;2024-03-06T05:19:44;92772.13;;;4.31;94.99
15568;BME280;7885;42.596;23.044;2024-03-06T05:22:13;92781.19;;;4.42;95.14
15568;BME280;7885;42.596;23.044;2024-03-06T05:24:40;92776.34;;;4.51;95.31
15568;BME280;7885;42.596;23.044;2024-03-06T05:27:07;92780.47;;;4.68;94.46
15568;BME280;7885;42.596;23.044;2024-03-06T05:29:35;92783.69;;;4.77;94.13
15568;BME280;7885;42.596;23.044;2024-03-06T05:32:02;92790.75;;;4.85;93.99
15568;BME280;7885;42.596;23.044;2024-03-06T05:34:29;92786.16;;;4.86;93.81
15568;BME280;7885;42.596;23.044;2024-03-06T05:36:56;92787.63;;;4.83;94.13
15568;BME280;7885;42.596;23.044;2024-03-06T05:39:23;92796.09;;;4.82;94.48
15568;BME280;7885;42.596;23.044;2024-03-06T05:41:50;92792.19;;;4.79;95.28
15568;BME280;7885;42.596;23.044;2024-03-06T05:44:16;92794.94;;;4.83;95.60
15568;BME280;7885;42.596;23.044;2024-03-06T05:46:45;92794.03;;;4.98;95.67
15568;BME280;7885;42.596;23.044;2024-03-06T05:49:12;92778.56;;;4.95;95.42
15568;BME280;7885;42.596;23.044;2024-03-06T05:51:39;92802.03;;;5.17;95.35
15568;BME280;7885;42.596;23.044;2024-03-06T05:54:06;92802.94;;;5.28;95.51
15568;BME280;7885;42.596;23.044;2024-03-06T05:56:33;92793.72;;;5.29;94.63
15568;BME280;7885;42.596;23.044;2024-03-06T05:59:00;92802.31;;;5.38;94.76
15568;BME280;7885;42.596;23.044;2024-03-06T06:01:30;92782.09;;;5.25;94.86
15568;BME280;7885;42.596;23.044;2024-03-06T06:03:58;92803.97;;;5.46;94.48
15568;BME280;7885;42.596;23.044;2024-03-06T06:06:26;92812.56;;;5.55;95.13
15568;BME280;7885;42.596;23.044;2024-03-06T06:08:52;92820.38;;;5.60;94.90
15568;BME280;7885;42.596;23.044;2024-03-06T06:11:19;92817.75;;;5.68;94.26
15568;BME280;7885;42.596;23.044;2024-03-06T06:13:46;92815.03;;;5.64;94.04
15568;BME280;7885;42.596;23.044;2024-03-06T06:16:13;92821.28;;;5.72;94.62
15568;BME280;7885;42.596;23.044;2024-03-06T06:18:40;92825.00;;;5.90;94.80
15568;BME280;7885;42.596;23.044;2024-03-06T06:21:08;92824.03;;;6.05;94.17
15568;BME280;7885;42.596;23.044;2024-03-06T06:23:35;92829.94;;;6.14;94.06
15568;BME280;7885;42.596;23.044;2024-03-06T06:26:02;92824.13;;;6.12;93.90
15568;BME280;7885;42.596;23.044;2024-03-06T06:28:28;92817.13;;;6.07;93.39
15568;BME280;7885;42.596;23.044;2024-03-06T06:30:55;92822.25;;;6.16;93.33
15568;BME280;7885;42.596;23.044;2024-03-06T06:33:22;92829.75;;;6.30;93.10
15568;BME280;7885;42.596;23.044;2024-03-06T06:35:49;92826.03;;;6.45;91.79
15568;BME280;7885;42.596;23.044;2024-03-06T06:38:18;92824.28;;;6.63;91.69
15568;BME280;7885;42.596;23.044;2024-03-06T06:40:45;92820.88;;;6.70;91.41
15568;BME280;7885;42.596;23.044;2024-03-06T06:49:55;92829.13;;;7.96;88.65
15568;BME280;7885;42.596;23.044;2024-03-06T06:52:22;92828.56;;;8.38;86.78
15568;BME280;7885;42.596;23.044;2024-03-06T06:54:50;92814.34;;;8.84;85.60
15568;BME280;7885;42.596;23.044;2024-03-06T06:57:17;92822.88;;;9.63;83.05
15568;BME280;7885;42.596;23.044;2024-03-06T06:59:45;92839.88;;;11.04;77.98
15568;BME280;7885;42.596;23.044;2024-03-06T07:02:12;92840.78;;;12.91;68.99
15568;BME280;7885;42.596;23.044;2024-03-06T07:04:38;92834.75;;;14.50;61.41
15568;BME280;7885;42.596;23.044;2024-03-06T07:07:05;92834.22;;;15.50;57.60
15568;BME280;7885;42.596;23.044;2024-03-06T07:09:32;92835.38;;;16.75;52.34
15568;BME280;7885;42.596;23.044;2024-03-06T07:12:00;92821.84;;;18.10;47.88
15568;BME280;7885;42.596;23.044;2024-03-06T07:14:28;92819.28;;;19.58;43.30
15568;BME280;7885;42.596;23.044;2024-03-06T07:16:54;92813.44;;;20.73;39.57
15568;BME280;7885;42.596;23.044;2024-03-06T07:19:21;92817.25;;;21.81;37.08
15568;BME280;7885;42.596;23.044;2024-03-06T07:21:48;92803.56;;;22.67;34.06
15568;BME280;7885;42.596;23.044;2024-03-06T07:24:15;92814.84;;;23.54;32.72
15568;BME280;7885;42.596;23.044;2024-03-06T07:26:41;92827.56;;;24.40;31.06
15568;BME280;7885;42.596;23.044;2024-03-06T07:29:10;92816.56;;;25.06;30.55
15568;BME280;7885;42.596;23.044;2024-03-06T07:31:40;92816.09;;;25.85;28.74
15568;BME280;7885;42.596;23.044;2024-03-06T07:34:07;92822.97;;;26.21;27.36
15568;BME280;7885;42.596;23.044;2024-03-06T07:39:55;92813.59;;;27.14;25.76
15568;BME280;7885;42.596;23.044;2024-03-06T07:42:23;92814.25;;;27.46;25.56
15568;BME280;7885;42.596;23.044;2024-03-06T07:44:52;92816.09;;;27.88;25.00
15568;BME280;7885;42.596;23.044;2024-03-06T07:47:18;92813.53;;;28.01;24.59
15568;BME280;7885;42.596;23.044;2024-03-06T07:49:45;92815.13;;;28.13;24.61
15568;BME280;7885;42.596;23.044;2024-03-06T07:52:12;92815.88;;;28.30;24.30
15568;BME280;7885;42.596;23.044;2024-03-06T07:54:39;92814.34;;;28.18;24.35
15568;BME280;7885;42.596;23.044;2024-03-06T07:57:07;92813.84;;;28.08;23.93
15568;BME280;7885;42.596;23.044;2024-03-06T07:59:35;92795.97;;;27.73;24.46
15568;BME280;7885;42.596;23.044;2024-03-06T08:02:03;92807.72;;;28.21;24.41
15568;BME280;7885;42.596;23.044;2024-03-06T08:04:30;92811.25;;;28.05;24.12
15568;BME280;7885;42.596;23.044;2024-03-06T08:06:57;92802.63;;;28.36;23.91
15568;BME280;7885;42.596;23.044;2024-03-06T08:09:24;92815.59;;;28.28;23.91
15568;BME280;7885;42.596;23.044;2024-03-06T08:11:53;92813.13;;;29.10;22.79
15568;BME280;7885;42.596;23.044;2024-03-06T08:14:20;92817.56;;;28.89;23.09
15568;BME280;7885;42.596;23.044;2024-03-06T08:16:47;92814.41;;;29.67;22.33
15568;BME280;7885;42.596;23.044;2024-03-06T08:19:15;92825.34;;;30.11;21.97
15568;BME280;7885;42.596;23.044;2024-03-06T08:21:42;92826.41;;;30.92;21.23
15568;BME280;7885;42.596;23.044;2024-03-06T08:24:09;92820.22;;;31.23;21.06
15568;BME280;7885;42.596;23.044;2024-03-06T08:26:36;92826.97;;;31.58;20.28
15568;BME280;7885;42.596;23.044;2024-03-06T08:29:03;92812.63;;;31.93;19.97
15568;BME280;7885;42.596;23.044;2024-03-06T08:31:30;92825.19;;;32.42;19.57
15568;BME280;7885;42.596;23.044;2024-03-06T08:33:57;92829.63;;;32.83;19.33
15568;BME280;7885;42.596;23.044;2024-03-06T08:36:25;92828.56;;;32.86;19.12
15568;BME280;7885;42.596;23.044;2024-03-06T08:38:52;92821.81;;;32.76;19.18
15568;BME280;7885;42.596;23.044;2024-03-06T08:41:19;92828.13;;;32.82;19.40
15568;BME280;7885;42.596;23.044;2024-03-06T08:43:46;92818.59;;;32.72;19.30
15568;BME280;7885;42.596;23.044;2024-03-06T08:46:13;92831.81;;;32.77;19.06
15568;BME280;7885;42.596;23.044;2024-03-06T08:48:39;92828.34;;;32.97;19.36
15568;BME280;7885;42.596;23.044;2024-03-06T08:51:06;92825.69;;;33.18;18.77
15568;BME280;7885;42.596;23.044;2024-03-06T08:53:37;92833.25;;;33.62;18.70
15568;BME280;7885;42.596;23.044;2024-03-06T08:56:05;92824.94;;;34.37;18.07
15568;BME280;7885;42.596;23.044;2024-03-06T08:58:32;92832.84;;;34.80;17.77
15568;BME280;7885;42.596;23.044;2024-03-06T09:00:58;92830.06;;;35.65;16.93
15568;BME280;7885;42.596;23.044;2024-03-06T09:03:40;92835.75;;;35.73;17.07
15568;BME280;7885;42.596;23.044;2024-03-06T09:06:07;92808.66;;;36.00;16.28
15568;BME280;7885;42.596;23.044;2024-03-06T09:08:34;92827.97;;;35.66;17.11
15568;BME280;7885;42.596;23.044;2024-03-06T09:11:02;92820.72;;;35.85;16.57
15568;BME280;7885;42.596;23.044;2024-03-06T09:13:28;92828.97;;;35.76;16.36
15568;BME280;7885;42.596;23.044;2024-03-06T09:15:55;92829.69;;;35.61;16.37
15568;BME280;7885;42.596;23.044;2024-03-06T09:18:22;92817.34;;;35.94;16.23
15568;BME280;7885;42.596;23.044;2024-03-06T09:20:49;92811.97;;;35.68;16.06
15568;BME280;7885;42.596;23.044;2024-03-06T09:23:15;92816.59;;;35.94;15.90
15568;BME280;7885;42.596;23.044;2024-03-06T09:35:49;92801.84;;;34.67;17.07
15568;BME280;7885;42.596;23.044;2024-03-06T09:38:16;92808.50;;;35.26;16.41
15568;BME280;7885;42.596;23.044;2024-03-06T09:40:42;92804.53;;;36.01;16.38
15568;BME280;7885;42.596;23.044;2024-03-06T09:43:09;92806.16;;;36.40;15.74
15568;BME280;7885;42.596;23.044;2024-03-06T09:45:36;92801.38;;;35.69;15.74
15568;BME280;7885;42.596;23.044;2024-03-06T09:48:04;92798.25;;;35.52;16.06
15568;BME280;7885;42.596;23.044;2024-03-06T09:50:34;92811.97;;;36.19;15.80
15568;BME280;7885;42.596;23.044;2024-03-06T09:53:08;92797.34;;;36.00;15.34
15568;BME280;7885;42.596;23.044;2024-03-06T09:55:36;92794.00;;;36.09;15.32
15568;BME280;7885;42.596;23.044;2024-03-06T09:58:03;92788.75;;;36.28;15.19
15568;BME280;7885;42.596;23.044;2024-03-06T10:00:30;92791.41;;;36.41;14.77
15568;BME280;7885;42.596;23.044;2024-03-06T10:02:59;92780.88;;;35.91;15.18
15568;BME280;7885;42.596;23.044;2024-03-06T10:05:26;92789.28;;;35.61;15.44
15568;BME280;7885;42.596;23.044;2024-03-06T10:07:53;92782.88;;;35.32;15.92
15568;BME280;7885;42.596;23.044;2024-03-06T10:10:22;92778.84;;;35.56;15.51
15568;BME280;7885;42.596;23.044;2024-03-06T10:12:49;92773.78;;;35.62;15.81
15568;BME280;7885;42.596;23.044;2024-03-06T10:15:16;92773.44;;;35.73;15.37
15568;BME280;7885;42.596;23.044;2024-03-06T10:21:04;92777.22;;;35.68;15.09
15568;BME280;7885;42.596;23.044;2024-03-06T10:23:32;92763.81;;;34.76;15.75
15568;BME280;7885;42.596;23.044;2024-03-06T10:26:01;92766.59;;;34.96;15.53
15568;BME280;7885;42.596;23.044;2024-03-06T10:28:28;92762.69;;;35.35;15.53
15568;BME280;7885;42.596;23.044;2024-03-06T10:31:03;92750.13;;;35.95;15.16
15568;BME280;7885;42.596;23.044;2024-03-06T10:33:31;92761.19;;;36.36;15.23
15568;BME280;7885;42.596;23.044;2024-03-06T10:35:59;92757.03;;;37.13;14.17
15568;BME280;7885;42.596;23.044;2024-03-06T10:38:29;92750.94;;;37.24;14.01
15568;BME280;7885;42.596;23.044;2024-03-06T10:48:04;92748.44;;;37.91;12.74
15568;BME280;7885;42.596;23.044;2024-03-06T10:50:32;92746.78;;;37.25;13.44
15568;BME280;7885;42.596;23.044;2024-03-06T10:52:59;92747.53;;;37.26;13.48
15568;BME280;7885;42.596;23.044;2024-03-06T10:55:27;92744.00;;;36.72;13.43
15568;BME280;7885;42.596;23.044;2024-03-06T10:57:58;92745.91;;;35.73;13.57
15568;BME280;7885;42.596;23.044;2024-03-06T11:00:25;92723.78;;;33.34;14.94
15568;BME280;7885;42.596;23.044;2024-03-06T11:02:55;92716.59;;;31.46;16.24
15568;BME280;7885;42.596;23.044;2024-03-06T11:05:25;92715.56;;;32.58;15.61
15568;BME280;7885;42.596;23.044;2024-03-06T11:07:52;92716.41;;;33.99;15.22
15568;BME280;7885;42.596;23.044;2024-03-06T11:10:30;92710.88;;;34.56;15.64
15568;BME280;7885;42.596;23.044;2024-03-06T11:12:57;92708.38;;;34.73;15.26
15568;BME280;7885;42.596;23.044;2024-03-06T11:15:24;92691.50;;;34.88;15.42
15568;BME280;7885;42.596;23.044;2024-03-06T11:17:51;92707.41;;;35.34;15.52
15568;BME280;7885;42.596;23.044;2024-03-06T11:20:21;92706.09;;;35.35;15.58
15568;BME280;7885;42.596;23.044;2024-03-06T11:23:09;92693.66;;;34.67;15.77
15568;BME280;7885;42.596;23.044;2024-03-06T11:25:59;92691.72;;;33.45;16.82
15568;BME280;7885;42.596;23.044;2024-03-06T11:28:28;92674.25;;;32.99;17.16
15568;BME280;7885;42.596;23.044;2024-03-06T11:30:57;92688.81;;;32.64;17.17
15568;BME280;7885;42.596;23.044;2024-03-06T11:33:29;92673.50;;;31.38;18.15
15568;BME280;7885;42.596;23.044;2024-03-06T11:36:17;92686.56;;;29.41;19.76
15568;BME280;7885;42.596;23.044;2024-03-06T11:38:50;92673.69;;;27.95;21.32
15568;BME280;7885;42.596;23.044;2024-03-06T11:41:18;92676.25;;;27.71;21.74
15568;BME280;7885;42.596;23.044;2024-03-06T11:43:45;92664.81;;;27.75;21.69
15568;BME280;7885;42.596;23.044;2024-03-06T11:46:15;92669.56;;;26.85;22.52
15568;BME280;7885;42.596;23.044;2024-03-06T11:48:43;92665.34;;;26.47;21.86
15568;BME280;7885;42.596;23.044;2024-03-06T11:51:10;92664.56;;;26.41;22.53
15568;BME280;7885;42.596;23.044;2024-03-06T11:53:37;92656.03;;;26.73;23.06
15568;BME280;7885;42.596;23.044;2024-03-06T11:56:08;92643.22;;;25.85;22.59
15568;BME280;7885;42.596;23.044;2024-03-06T11:58:34;92651.81;;;25.44;24.74
15568;BME280;7885;42.596;23.044;2024-03-06T12:01:01;92646.94;;;25.71;24.43
15568;BME280;7885;42.596;23.044;2024-03-06T12:03:29;92632.78;;;25.80;23.50
15568;BME280;7885;42.596;23.044;2024-03-06T12:05:56;92637.72;;;26.01;23.78
15568;BME280;7885;42.596;23.044;2024-03-06T12:08:23;92632.69;;;26.11;23.40
15568;BME280;7885;42.596;23.044;2024-03-06T12:10:49;92644.75;;;26.34;23.57
15568;BME280;7885;42.596;23.044;2024-03-06T12:13:18;92639.97;;;25.92;23.55
15568;BME280;7885;42.596;23.044;2024-03-06T12:15:46;92636.66;;;25.20;23.52
15568;BME280;7885;42.596;23.044;2024-03-06T12:18:13;92636.13;;;24.90;24.69
15568;BME280;7885;42.596;23.044;2024-03-06T12:20:42;92637.00;;;24.76;24.61
15568;BME280;7885;42.596;23.044;2024-03-06T12:23:19;92622.94;;;24.85;24.25
15568;BME280;7885;42.596;23.044;2024-03-06T12:39:16;92617.19;;;22.97;26.32
15568;BME280;7885;42.596;23.044;2024-03-06T12:41:46;92618.44;;;21.99;27.16
15568;BME280;7885;42.596;23.044;2024-03-06T12:44:13;92616.66;;;21.87;27.82
15568;BME280;7885;42.596;23.044;2024-03-06T12:46:40;92622.31;;;21.69;28.44
15568;BME280;7885;42.596;23.044;2024-03-06T12:49:07;92622.66;;;21.38;29.28
15568;BME280;7885;42.596;23.044;2024-03-06T12:51:34;92616.91;;;21.18;29.06
15568;BME280;7885;42.596;23.044;2024-03-06T12:54:01;92607.34;;;20.86;29.65
15568;BME280;7885;42.596;23.044;2024-03-06T12:56:30;92628.13;;;20.73;30.45
15568;BME280;7885;42.596;23.044;2024-03-06T12:58:57;92622.06;;;20.50;30.41
15568;BME280;7885;42.596;23.044;2024-03-06T13:01:23;92618.72;;;20.28;30.95
15568;BME280;7885;42.596;23.044;2024-03-06T13:03:52;92627.16;;;20.15;31.50
15568;BME280;7885;42.596;23.044;2024-03-06T13:06:19;92625.16;;;19.80;31.99
15568;BME280;7885;42.596;23.044;2024-03-06T13:08:46;92631.25;;;19.56;32.99
15568;BME280;7885;42.596;23.044;2024-03-06T13:11:13;92612.31;;;19.18;33.60
15568;BME280;7885;42.596;23.044;2024-03-06T13:13:41;92608.78;;;18.47;36.74
15568;BME280;7885;42.596;23.044;2024-03-06T13:16:08;92636.59;;;18.18;38.39
15568;BME280;7885;42.596;23.044;2024-03-06T13:18:35;92635.91;;;18.05;39.43
15568;BME280;7885;42.596;23.044;2024-03-06T13:21:02;92641.63;;;17.77;41.34
15568;BME280;7885;42.596;23.044;2024-03-06T13:23:29;92664.06;;;17.28;45.05
15568;BME280;7885;42.596;23.044;2024-03-06T13:25:56;92645.75;;;16.75;48.78
15568;BME280;7885;42.596;23.044;2024-03-06T13:28:24;92667.81;;;16.04;57.17
15568;BME280;7885;42.596;23.044;2024-03-06T13:30:52;92662.53;;;14.72;63.61
15568;BME280;7885;42.596;23.044;2024-03-06T13:33:19;92675.03;;;14.17;68.46
15568;BME280;7885;42.596;23.044;2024-03-06T13:35:46;92667.28;;;13.33;76.29
15568;BME280;7885;42.596;23.044;2024-03-06T13:38:13;92675.19;;;13.01;80.36
15568;BME280;7885;42.596;23.044;2024-03-06T13:40:39;92663.78;;;12.83;75.88
15568;BME280;7885;42.596;23.044;2024-03-06T13:43:06;92652.72;;;12.66;71.49
15568;BME280;7885;42.596;23.044;2024-03-06T13:52:18;92666.50;;;12.83;66.06
15568;BME280;7885;42.596;23.044;2024-03-06T13:54:46;92676.97;;;12.88;79.43
15568;BME280;7885;42.596;23.044;2024-03-06T13:57:13;92662.59;;;12.84;78.34
15568;BME280;7885;42.596;23.044;2024-03-06T13:59:40;92665.94;;;12.95;78.54
15568;BME280;7885;42.596;23.044;2024-03-06T14:08:58;92681.25;;;13.58;87.23